createdAt,value
2019-05-17T00:56:37.038Z,19.67
2019-05-17T01:18:03.694Z,19.27
2019-05-17T01:43:09.174Z,23.80
2019-05-17T02:44:24.346Z,25.80
2019-05-17T03:43:15.469Z,32.77
2019-05-17T03:55:23.557Z,34.07
2019-05-17T03:57:53.746Z,39.50
2019-05-17T05:08:12.977Z,23.07
2019-05-17T05:20:22.103Z,21.10
2019-05-17T05:30:05.999Z,16.50
2019-05-17T06:06:45.089Z,20.83
2019-05-17T06:45:28.585Z,17.57
2019-05-17T06:47:58.567Z,17.20
2019-05-17T07:09:35.982Z,16.23
2019-05-17T07:12:05.106Z,16.73
2019-05-17T07:14:35.074Z,17.00
2019-05-17T07:23:49.904Z,16.10
2019-05-17T07:26:20.532Z,16.67
2019-05-17T07:28:50.530Z,16.70
2019-05-17T07:32:36.904Z,14.50
2019-05-17T07:35:07.402Z,14.70
2019-05-17T07:37:39.550Z,14.00
2019-05-17T07:40:10.798Z,13.87
2019-05-17T07:42:41.220Z,15.27
2019-05-17T07:45:11.945Z,13.20
2019-05-17T08:16:56.245Z,12.33
2019-05-17T08:19:26.154Z,11.27
2019-05-17T08:21:56.304Z,12.30
2019-05-17T08:24:26.269Z,12.30
2019-05-17T08:46:02.887Z,12.23
2019-05-17T08:55:33.392Z,11.67
2019-05-17T08:58:03.513Z,12.53
2019-05-17T09:00:33.561Z,13.10
2019-05-17T09:14:12.751Z,13.27
2019-05-17T09:16:42.764Z,13.70
2019-05-17T09:19:12.999Z,11.87
2019-05-17T09:37:41.406Z,12.43
2019-05-17T09:40:11.585Z,12.93
2019-05-17T09:42:41.604Z,11.77
2019-05-17T09:45:12.593Z,13.13
2019-05-17T09:47:42.547Z,11.80
2019-05-17T09:50:13.456Z,12.33
2019-05-17T09:52:43.392Z,14.03
2019-05-17T09:55:13.377Z,12.60
2019-05-17T09:57:43.306Z,13.67
2019-05-17T10:00:14.820Z,12.90
2019-05-17T10:02:45.359Z,12.80
2019-05-17T10:05:15.457Z,14.53
2019-05-17T10:07:45.366Z,12.07
2019-05-17T10:10:15.869Z,13.70
2019-05-17T10:12:46.644Z,12.73
2019-05-17T10:15:16.890Z,12.40
2019-05-17T10:17:46.928Z,10.67
2019-05-17T10:20:19.814Z,12.83
2019-05-17T10:22:50.397Z,13.07
2019-05-17T10:29:11.340Z,12.70
2019-05-17T11:09:30.868Z,9.23
2019-05-17T11:11:59.989Z,9.43
2019-05-17T11:30:49.953Z,8.23
2019-05-17T11:33:20.028Z,10.33
2019-05-17T11:35:50.125Z,12.00
2019-05-17T11:38:20.235Z,11.33
2019-05-17T11:40:50.411Z,9.63
2019-05-17T11:43:20.431Z,9.53
2019-05-17T11:45:50.417Z,10.10
2019-05-17T11:48:20.570Z,8.30
2019-05-17T11:54:35.278Z,8.90
2019-05-17T11:57:05.311Z,8.87
2019-05-17T11:59:35.617Z,9.07
2019-05-17T12:02:05.663Z,10.20
2019-05-17T12:04:35.636Z,10.47
2019-05-17T12:07:05.653Z,9.03
2019-05-17T12:09:37.595Z,9.10
2019-05-17T12:15:58.686Z,8.53
2019-05-17T12:18:29.029Z,8.70
2019-05-17T12:20:59.076Z,7.90
2019-05-17T12:23:28.998Z,7.70
2019-05-17T12:25:58.948Z,9.40
2019-05-17T12:32:20.369Z,9.30
2019-05-17T12:34:50.347Z,7.40
2019-05-17T12:37:20.256Z,7.37
2019-05-17T12:39:50.363Z,8.60
2019-05-17T12:42:20.460Z,8.20
2019-05-17T12:44:50.490Z,8.47
2019-05-17T12:47:20.541Z,7.90
2019-05-17T12:49:50.498Z,6.33
2019-05-17T12:56:05.191Z,8.10
2019-05-17T13:05:36.989Z,6.80
2019-05-17T13:08:07.174Z,6.80
2019-05-17T13:10:37.739Z,6.27
2019-05-17T13:13:09.750Z,8.17
2019-05-17T13:15:40.093Z,7.30
2019-05-17T13:18:10.685Z,7.10
2019-05-17T13:24:31.692Z,7.10
2019-05-17T13:27:03.218Z,6.00
2019-05-17T13:29:33.149Z,6.73
2019-05-17T13:32:03.187Z,6.10
2019-05-17T13:34:33.151Z,6.60
2019-05-17T13:37:03.762Z,6.07
2019-05-17T13:39:34.328Z,6.47
2019-05-17T13:42:04.425Z,6.37
2019-05-17T13:48:25.321Z,6.40
2019-05-17T13:51:32.310Z,5.87
2019-05-17T14:09:17.632Z,5.93
2019-05-17T14:21:07.186Z,5.40
2019-05-17T14:46:23.802Z,2.90
2019-05-17T14:56:06.949Z,2.93
2019-05-17T15:05:49.973Z,2.30
2019-05-17T15:08:19.888Z,2.80
2019-05-17T15:10:49.853Z,2.57
2019-05-17T15:13:19.935Z,2.97
2019-05-17T15:15:49.907Z,3.00
2019-05-17T15:21:45.950Z,2.70
2019-05-17T15:24:15.996Z,3.17
2019-05-17T15:26:46.026Z,3.07
2019-05-17T15:29:16.456Z,3.33
2019-05-17T15:35:37.481Z,3.20
2019-05-17T15:38:10.948Z,3.23
2019-05-17T15:40:39.238Z,4.30
2019-05-17T15:43:09.293Z,3.80
2019-05-17T15:45:39.246Z,3.83
2019-05-17T15:51:54.161Z,2.70
2019-05-17T15:54:24.116Z,3.53
2019-05-17T15:56:54.116Z,3.10
2019-05-17T16:03:15.149Z,3.63
2019-05-17T17:03:44.129Z,2.97
2019-05-17T17:06:10.821Z,2.90
2019-05-17T17:12:44.581Z,3.50
2019-05-17T17:15:14.753Z,3.43
2019-05-17T17:24:07.141Z,2.77
2019-05-17T17:26:37.170Z,3.47
2019-05-17T17:32:51.798Z,3.03
2019-05-17T17:35:21.978Z,2.87
2019-05-17T17:37:51.981Z,2.80
2019-05-17T17:51:52.162Z,3.40
2019-05-17T17:54:22.186Z,5.23
2019-05-17T17:56:52.312Z,4.00
2019-05-17T18:02:54.733Z,3.37
2019-05-17T18:05:25.333Z,3.43
2019-05-17T18:11:46.981Z,3.53
2019-05-17T18:14:16.959Z,3.90
2019-05-17T18:32:55.220Z,3.20
2019-05-17T18:35:25.680Z,3.23
2019-05-17T18:37:55.789Z,4.10
2019-05-17T18:40:26.114Z,3.53
2019-05-17T18:46:47.551Z,3.83
2019-05-17T18:59:13.149Z,4.73
2019-05-17T19:01:43.349Z,4.60
2019-05-17T19:08:04.046Z,5.70
2019-05-17T19:10:34.036Z,4.90
2019-05-17T19:13:03.991Z,3.37
2019-05-17T19:15:33.916Z,4.60
2019-05-17T19:18:04.077Z,4.93
2019-05-17T19:20:34.179Z,4.37
2019-05-17T19:29:07.887Z,4.70
2019-05-17T19:31:38.426Z,4.90
2019-05-17T19:34:09.337Z,5.77
2019-05-17T19:36:41.570Z,6.10
2019-05-17T19:39:11.494Z,5.33
2019-05-17T19:41:41.589Z,5.40
2019-05-17T19:44:11.523Z,5.40
2019-05-17T19:46:42.183Z,4.60
2019-05-17T19:49:12.267Z,5.00
2019-05-17T19:55:13.326Z,6.37
2019-05-17T19:57:43.319Z,5.07
2019-05-17T20:00:14.074Z,5.17
2019-05-17T20:02:44.193Z,5.47
2019-05-17T20:05:16.335Z,5.33
2019-05-17T20:07:46.248Z,4.97
2019-05-17T20:10:17.245Z,6.50
2019-05-17T20:12:47.250Z,6.43
2019-05-17T20:15:19.762Z,4.93
2019-05-17T20:17:50.173Z,6.80
2019-05-17T20:20:20.340Z,7.00
2019-05-17T20:22:50.311Z,7.30
2019-05-17T20:25:20.501Z,7.80
2019-05-17T20:27:50.405Z,8.80
2019-05-17T20:30:20.921Z,10.30
2019-05-17T20:36:42.509Z,8.60
2019-05-17T20:46:31.621Z,8.47
2019-05-17T20:49:01.603Z,8.03
2019-05-17T20:51:31.931Z,8.03
2019-05-17T20:54:02.054Z,10.10
2019-05-17T20:56:33.460Z,9.10
2019-05-17T20:59:04.089Z,11.07
2019-05-17T21:01:34.229Z,12.00
2019-05-17T21:04:04.349Z,10.17
2019-05-17T21:06:34.494Z,12.03
2019-05-17T21:09:05.408Z,11.17
2019-05-17T21:11:35.983Z,11.63
2019-05-17T21:42:41.729Z,6.47
2019-05-17T21:45:12.044Z,8.00
2019-05-17T21:47:42.038Z,6.90
2019-05-17T21:50:12.402Z,6.50
2019-05-17T21:52:42.428Z,7.03
2019-05-17T21:55:12.678Z,7.80
2019-05-17T21:57:42.593Z,6.77
2019-05-17T22:00:18.210Z,6.67
2019-05-17T22:02:48.139Z,8.23
2019-05-17T22:06:15.746Z,8.70
2019-05-17T22:08:45.925Z,9.97
2019-05-17T22:11:16.799Z,9.30
2019-05-17T22:13:47.140Z,9.13
2019-05-17T22:16:19.950Z,8.27
2019-05-17T22:18:49.081Z,9.80
2019-05-17T22:21:19.047Z,10.50
2019-05-17T22:23:48.967Z,10.00
2019-05-17T22:26:18.931Z,10.70
2019-05-17T22:28:48.843Z,10.13
2019-05-17T22:31:18.797Z,8.93
2019-05-17T22:37:33.741Z,7.50
2019-05-17T22:47:17.212Z,8.90
2019-05-17T22:49:47.141Z,6.50
2019-05-17T22:52:17.160Z,7.53
2019-05-17T22:54:47.168Z,8.63
2019-05-17T23:16:07.224Z,10.83
2019-05-17T23:18:37.716Z,12.27
2019-05-17T23:21:08.003Z,11.90
2019-05-17T23:23:37.993Z,15.67
2019-05-17T23:29:59.682Z,10.33
2019-05-17T23:32:29.803Z,14.30
2019-05-17T23:34:59.820Z,16.60
2019-05-17T23:37:29.853Z,14.83
2019-05-17T23:39:59.777Z,13.50
2019-05-17T23:42:29.896Z,14.73
2019-05-17T23:44:59.901Z,13.43
2019-05-17T23:51:20.829Z,14.03
2019-05-17T23:53:50.744Z,13.67
2019-05-17T23:56:21.092Z,14.40
2019-05-17T23:58:51.294Z,14.47
